Accueil
METAR-TAF:

METAR-TAF

Aéroports :

Libreville, Gabon

Aéroport international Léon-Mba

latitude: 00-27N, longitude: 009-25E, altitude: 12 m

Observation

Le bulletin a été fait il y a 35 minutes, à 03:00 UTC
Vent 4 kt de est/nord-est
Température 25°C
Humidité 100%
Pression 1011 hPa
Visibilité: 8000 m
Quelques nuages à une hauteur de 900 ft

METAR: FOOL 260300Z 07004KT 8000 FEW009 25/25 Q1011 NOSIG

Heure: 04:35 (03:35 UTC)

Prévision

Le bulletin a été fait il y a 4 heures et 35 minutes, à 23:00 UTC
Prévision valable du 26 à 00 UTC au 27 à 06 UTC
Vent 6 kt de sud-ouest
Visibilité: 8000 m
Quelques nuages à une hauteur de 900 ft
Quelques nuages à une hauteur de 2000 ft, Cumulonimbus.
Temporairement
du 26 à 02 UTC au 26 à 08 UTC
orage

TAF: FOOL 252300Z 2600/2706 22006KT 8000 FEW009 FEW020CB TEMPO 2602/2608 TS

Observations et prévisions météorologiques de plus de 4000 aéroports (messages METAR et TAF).

Les stations disponibles sont représentées par des disques jaunes et rouges sur la carte.

Passer la souris dessus pour voir le nom de la station.

Cliquer dessus pour voir les observations et prévisions météorologiques.

Pour changer de carte: cliquez sur les boutons verts avec une croix noire pour zoomer, sur le bouton vert avec un tiret pour effectuer un zoom arrière, ou sur les flèches vertes pour les cartes adjacentes.


METAR-TAF: